createdAt,value
2022-10-12T00:00:06.624Z,100.00
2022-10-12T00:02:59.799Z,100.00
2022-10-12T00:05:27.494Z,100.00
2022-10-12T00:07:55.361Z,100.00
2022-10-12T00:10:23.003Z,100.00
2022-10-12T00:12:50.469Z,100.00
2022-10-12T00:15:18.589Z,100.00
2022-10-12T00:17:45.942Z,100.00
2022-10-12T00:20:13.189Z,100.00
2022-10-12T00:22:40.819Z,100.00
2022-10-12T00:25:08.718Z,100.00
2022-10-12T00:27:36.879Z,100.00
2022-10-12T00:30:05.648Z,100.00
2022-10-12T00:32:33.267Z,100.00
2022-10-12T00:35:00.741Z,100.00
2022-10-12T00:37:28.963Z,100.00
2022-10-12T00:39:56.254Z,100.00
2022-10-12T00:42:23.495Z,100.00
2022-10-12T00:44:52.065Z,100.00
2022-10-12T00:47:32.392Z,100.00
2022-10-12T00:50:04.484Z,100.00
2022-10-12T00:52:39.168Z,100.00
2022-10-12T00:55:08.691Z,100.00
2022-10-12T00:57:36.484Z,100.00
2022-10-12T01:00:08.109Z,100.00
2022-10-12T01:02:37.074Z,100.00
2022-10-12T01:05:05.297Z,100.00
2022-10-12T01:07:32.977Z,100.00
2022-10-12T01:10:00.567Z,100.00
2022-10-12T01:12:28.092Z,100.00
2022-10-12T01:14:55.761Z,100.00
2022-10-12T01:17:48.330Z,100.00
2022-10-12T01:20:40.691Z,100.00
2022-10-12T01:23:31.701Z,100.00
2022-10-12T01:26:06.009Z,100.00
2022-10-12T01:28:36.358Z,100.00
2022-10-12T01:31:19.146Z,100.00
2022-10-12T01:33:52.274Z,100.00
2022-10-12T01:36:31.264Z,100.00
2022-10-12T01:39:16.919Z,100.00
2022-10-12T01:41:50.819Z,100.00
2022-10-12T01:44:25.784Z,100.00
2022-10-12T01:46:54.824Z,100.00
2022-10-12T01:49:28.314Z,100.00
2022-10-12T01:52:00.043Z,100.00
2022-10-12T01:54:45.299Z,100.00
2022-10-12T01:57:21.916Z,100.00
2022-10-12T01:59:59.389Z,100.00
2022-10-12T02:02:37.650Z,100.00
2022-10-12T02:05:25.450Z,100.00
2022-10-12T02:08:00.349Z,100.00
2022-10-12T02:10:33.729Z,100.00
2022-10-12T02:13:05.969Z,100.00
2022-10-12T02:15:33.503Z,100.00
2022-10-12T02:18:03.788Z,100.00
2022-10-12T02:20:33.376Z,100.00
2022-10-12T02:23:02.209Z,100.00
2022-10-12T02:25:31.795Z,100.00
2022-10-12T02:28:20.956Z,100.00
2022-10-12T02:30:54.182Z,100.00
2022-10-12T02:33:30.341Z,100.00
2022-10-12T02:36:12.216Z,100.00
2022-10-12T02:38:53.858Z,100.00
2022-10-12T02:41:28.584Z,100.00
2022-10-12T02:44:00.808Z,100.00
2022-10-12T02:46:29.119Z,100.00
2022-10-12T02:48:59.079Z,100.00
2022-10-12T02:51:28.493Z,100.00
2022-10-12T02:53:56.873Z,100.00
2022-10-12T02:56:24.300Z,100.00
2022-10-12T02:58:52.183Z,100.00
2022-10-12T03:01:21.279Z,100.00
2022-10-12T03:03:48.809Z,100.00
2022-10-12T03:06:16.333Z,100.00
2022-10-12T03:08:43.994Z,100.00
2022-10-12T03:11:14.020Z,100.00
2022-10-12T03:13:41.420Z,100.00
2022-10-12T03:16:10.841Z,100.00
2022-10-12T03:18:38.501Z,100.00
2022-10-12T03:21:06.142Z,100.00
2022-10-12T03:23:33.874Z,100.00
2022-10-12T03:26:01.212Z,100.00
2022-10-12T03:28:28.760Z,100.00
2022-10-12T03:30:56.397Z,100.00
2022-10-12T03:33:23.720Z,100.00
2022-10-12T03:35:51.319Z,100.00
2022-10-12T03:38:19.519Z,100.00
2022-10-12T03:40:47.273Z,100.00
2022-10-12T03:43:14.914Z,100.00
2022-10-12T03:45:42.113Z,100.00
2022-10-12T03:48:09.909Z,100.00
2022-10-12T03:50:37.272Z,100.00
2022-10-12T03:53:06.058Z,100.00
2022-10-12T03:55:33.851Z,100.00
2022-10-12T03:58:01.671Z,100.00
2022-10-12T04:00:29.023Z,100.00
2022-10-12T04:02:56.734Z,100.00
2022-10-12T04:05:24.231Z,100.00
2022-10-12T04:07:51.606Z,100.00
2022-10-12T04:10:19.269Z,100.00
2022-10-12T04:12:47.014Z,100.00
2022-10-12T04:15:15.044Z,100.00
2022-10-12T04:17:43.292Z,100.00
2022-10-12T04:20:11.339Z,100.00
2022-10-12T04:22:39.995Z,100.00
2022-10-12T04:25:07.987Z,100.00
2022-10-12T04:27:35.652Z,100.00
2022-10-12T04:30:03.202Z,100.00
2022-10-12T04:32:33.548Z,100.00
2022-10-12T04:35:00.951Z,100.00
2022-10-12T04:37:28.742Z,100.00
2022-10-12T04:39:56.117Z,100.00
2022-10-12T04:42:23.628Z,100.00
2022-10-12T04:44:51.037Z,100.00
2022-10-12T04:47:18.693Z,100.00
2022-10-12T04:49:46.129Z,100.00
2022-10-12T04:52:15.078Z,100.00
2022-10-12T04:54:43.581Z,100.00
2022-10-12T04:57:11.362Z,100.00
2022-10-12T04:59:38.711Z,100.00
2022-10-12T05:02:06.239Z,100.00
2022-10-12T05:07:01.543Z,100.00
2022-10-12T05:09:34.019Z,100.00
2022-10-12T05:12:02.132Z,100.00
2022-10-12T05:14:35.754Z,100.00
2022-10-12T05:17:03.804Z,100.00
2022-10-12T05:19:31.539Z,100.00
2022-10-12T05:21:58.966Z,100.00
2022-10-12T05:24:26.753Z,100.00
2022-10-12T05:26:54.262Z,100.00
2022-10-12T05:29:21.735Z,100.00
2022-10-12T05:31:49.063Z,100.00
2022-10-12T05:34:16.935Z,100.00
2022-10-12T05:36:44.461Z,100.00
2022-10-12T05:39:12.081Z,100.00
2022-10-12T05:41:39.379Z,100.00
2022-10-12T05:44:07.175Z,100.00
2022-10-12T05:46:34.451Z,100.00
2022-10-12T05:49:01.970Z,100.00
2022-10-12T05:51:29.333Z,100.00
2022-10-12T05:53:57.023Z,100.00
2022-10-12T05:56:24.199Z,100.00
2022-10-12T05:58:51.961Z,100.00
2022-10-12T06:01:19.307Z,100.00
2022-10-12T06:03:46.934Z,100.00
2022-10-12T06:06:14.257Z,100.00
2022-10-12T06:08:42.004Z,100.00
2022-10-12T06:11:10.381Z,100.00
2022-10-12T06:13:37.971Z,100.00
2022-10-12T06:16:05.698Z,100.00
2022-10-12T06:18:33.498Z,100.00
2022-10-12T06:21:21.512Z,100.00
2022-10-12T06:23:49.278Z,100.00
2022-10-12T06:26:21.959Z,100.00
2022-10-12T06:28:49.608Z,100.00
2022-10-12T06:31:16.981Z,100.00
2022-10-12T06:33:44.549Z,100.00
2022-10-12T06:36:12.098Z,100.00
2022-10-12T06:38:39.818Z,100.00
2022-10-12T06:41:07.179Z,100.00
2022-10-12T06:43:35.140Z,100.00
2022-10-12T06:46:02.931Z,100.00
2022-10-12T06:48:31.432Z,100.00
2022-10-12T06:50:59.296Z,100.00
2022-10-12T06:53:33.054Z,100.00
2022-10-12T06:56:01.190Z,100.00
2022-10-12T06:58:28.819Z,100.00
2022-10-12T07:00:56.573Z,100.00
2022-10-12T07:03:24.245Z,100.00
2022-10-12T07:05:51.644Z,100.00
2022-10-12T07:08:19.291Z,100.00
2022-10-12T07:10:46.580Z,100.00
2022-10-12T07:13:14.375Z,100.00
2022-10-12T07:15:41.792Z,100.00
2022-10-12T07:18:09.609Z,100.00
2022-10-12T07:20:40.112Z,100.00
2022-10-12T07:23:07.923Z,100.00
2022-10-12T07:25:35.242Z,100.00
2022-10-12T07:28:05.441Z,100.00
2022-10-12T07:30:33.055Z,100.00
2022-10-12T07:33:00.782Z,100.00
2022-10-12T07:35:28.270Z,100.00
2022-10-12T07:37:55.889Z,100.00
2022-10-12T07:40:23.113Z,100.00
2022-10-12T07:43:14.743Z,100.00
2022-10-12T07:45:37.988Z,100.00
2022-10-12T07:48:05.628Z,100.00
2022-10-12T07:50:33.356Z,100.00
2022-10-12T07:53:00.711Z,100.00
2022-10-12T07:55:29.902Z,100.00
2022-10-12T07:57:57.346Z,100.00
2022-10-12T08:00:25.204Z,100.00
2022-10-12T08:02:52.400Z,100.00
2022-10-12T08:05:21.538Z,100.00
2022-10-12T08:07:49.945Z,100.00
2022-10-12T08:10:18.478Z,100.00
2022-10-12T08:12:51.110Z,99.94
2022-10-12T08:15:20.275Z,98.15
2022-10-12T08:17:47.504Z,98.08
2022-10-12T08:20:15.534Z,100.00
2022-10-12T08:22:42.962Z,100.00
2022-10-12T08:25:10.589Z,100.00
2022-10-12T08:27:39.004Z,100.00
2022-10-12T08:30:07.312Z,94.37
2022-10-12T08:32:34.732Z,94.88
2022-10-12T08:35:02.729Z,93.36
2022-10-12T08:37:30.555Z,92.11
2022-10-12T08:40:02.283Z,92.98
2022-10-12T08:42:48.571Z,91.66
2022-10-12T08:45:30.070Z,94.68
2022-10-12T08:48:08.459Z,92.74
2022-10-12T08:50:41.094Z,91.25
2022-10-12T08:53:20.798Z,88.10
2022-10-12T08:55:48.497Z,85.81
2022-10-12T08:58:21.811Z,88.71
2022-10-12T09:00:57.824Z,84.55
2022-10-12T09:03:54.883Z,89.09
2022-10-12T09:06:24.747Z,87.82
2022-10-12T09:09:14.294Z,86.62
2022-10-12T09:12:01.260Z,87.31
2022-10-12T09:14:34.526Z,84.27
2022-10-12T09:17:03.266Z,85.37
2022-10-12T09:19:37.817Z,89.66
2022-10-12T09:22:06.236Z,86.86
2022-10-12T09:24:37.462Z,86.10
2022-10-12T09:27:19.024Z,88.60
2022-10-12T09:29:48.036Z,90.51
2022-10-12T09:32:40.149Z,87.57
2022-10-12T09:35:08.402Z,87.88
2022-10-12T09:37:36.704Z,87.16
2022-10-12T09:40:04.562Z,83.69
2022-10-12T09:42:33.922Z,84.28
2022-10-12T09:45:20.062Z,85.79
2022-10-12T09:48:25.292Z,83.92
2022-10-12T09:51:04.028Z,83.95
2022-10-12T09:53:55.362Z,81.16
2022-10-12T09:56:30.863Z,83.82
2022-10-12T09:59:07.147Z,83.56
2022-10-12T10:01:35.761Z,84.18
2022-10-12T10:04:18.262Z,80.15
2022-10-12T10:06:47.016Z,82.07
2022-10-12T10:09:34.397Z,80.92
2022-10-12T10:12:22.734Z,81.51
2022-10-12T10:14:51.999Z,80.50
2022-10-12T10:17:34.030Z,83.33
2022-10-12T10:20:04.854Z,81.11
2022-10-12T10:22:32.515Z,77.25
2022-10-12T10:25:01.075Z,82.67
2022-10-12T10:27:39.930Z,78.94
2022-10-12T10:30:40.749Z,78.15
2022-10-12T10:33:18.669Z,81.55
2022-10-12T10:36:25.523Z,78.69
2022-10-12T10:38:58.218Z,82.96
2022-10-12T10:41:38.821Z,77.49
2022-10-12T10:44:34.005Z,78.13
2022-10-12T10:47:04.554Z,79.41
2022-10-12T10:49:49.630Z,79.40
2022-10-12T10:52:31.671Z,77.27
2022-10-12T10:55:28.950Z,77.65
2022-10-12T10:58:02.623Z,82.64
2022-10-12T11:00:38.574Z,81.02
2022-10-12T11:03:15.259Z,75.99
2022-10-12T11:05:50.159Z,77.03
2022-10-12T11:08:26.454Z,78.59
2022-10-12T11:10:58.151Z,79.68
2022-10-12T11:13:35.056Z,79.66
2022-10-12T11:16:20.701Z,78.04
2022-10-12T11:18:55.536Z,79.78
2022-10-12T11:21:48.282Z,80.79
2022-10-12T11:24:19.094Z,79.83
2022-10-12T11:26:52.626Z,80.21
2022-10-12T11:29:20.297Z,79.58
2022-10-12T11:31:59.477Z,78.51
2022-10-12T11:34:28.841Z,77.39
2022-10-12T11:37:18.036Z,73.65
2022-10-12T11:39:50.071Z,74.30
2022-10-12T11:42:28.577Z,75.62
2022-10-12T11:44:57.298Z,76.38
2022-10-12T11:47:35.395Z,77.15
2022-10-12T11:50:15.920Z,77.14
2022-10-12T11:52:49.381Z,77.54
2022-10-12T11:55:44.452Z,77.94
2022-10-12T11:58:36.311Z,79.07
2022-10-12T12:01:34.580Z,79.15
2022-10-12T12:04:48.086Z,78.86
2022-10-12T12:07:46.775Z,79.17
2022-10-12T12:10:35.620Z,75.20
2022-10-12T12:13:24.066Z,76.94
2022-10-12T12:15:52.128Z,72.33
2022-10-12T12:18:21.963Z,71.40
2022-10-12T12:20:49.475Z,70.88
2022-10-12T12:23:29.786Z,73.87
2022-10-12T12:26:16.822Z,71.67
2022-10-12T12:28:49.974Z,67.80
2022-10-12T12:31:23.533Z,68.08
2022-10-12T12:34:19.745Z,70.67
2022-10-12T12:36:48.903Z,72.67
2022-10-12T12:39:30.752Z,71.35
2022-10-12T12:42:03.770Z,71.68
2022-10-12T12:44:37.419Z,72.91
2022-10-12T12:47:20.542Z,72.65
2022-10-12T12:49:56.196Z,72.17
2022-10-12T12:52:24.693Z,69.45
2022-10-12T12:54:57.970Z,66.78
2022-10-12T12:58:02.985Z,68.73
2022-10-12T13:00:52.362Z,68.82
2022-10-12T13:03:20.079Z,70.69
2022-10-12T13:06:24.889Z,70.53
2022-10-12T13:09:14.298Z,71.74
2022-10-12T13:12:20.268Z,74.33
2022-10-12T13:15:00.339Z,74.73
2022-10-12T13:17:49.050Z,74.72
2022-10-12T13:20:20.039Z,75.47
2022-10-12T13:22:48.633Z,75.58
2022-10-12T13:25:29.199Z,76.94
2022-10-12T13:27:57.301Z,76.30
2022-10-12T13:30:33.934Z,75.89
2022-10-12T13:33:22.581Z,77.21
2022-10-12T13:35:57.746Z,76.30
2022-10-12T13:38:29.663Z,77.32
2022-10-12T13:41:12.374Z,77.80
2022-10-12T13:43:48.889Z,80.54
2022-10-12T13:46:36.979Z,79.14
2022-10-12T13:49:13.602Z,78.08
2022-10-12T13:51:43.540Z,73.72
2022-10-12T13:54:28.594Z,73.92
2022-10-12T13:56:59.801Z,73.42
2022-10-12T13:59:29.883Z,74.74
2022-10-12T14:02:03.008Z,75.79
2022-10-12T14:04:32.624Z,75.26
2022-10-12T14:07:01.675Z,74.99
2022-10-12T14:09:36.973Z,75.72
2022-10-12T14:12:04.915Z,77.60
2022-10-12T14:14:37.137Z,77.54
2022-10-12T14:17:05.041Z,78.43
2022-10-12T14:19:45.161Z,76.15
2022-10-12T14:22:21.376Z,77.40
2022-10-12T14:24:49.001Z,78.24
2022-10-12T14:27:23.757Z,78.28
2022-10-12T14:29:54.879Z,77.68
2022-10-12T14:32:22.498Z,79.58
2022-10-12T14:34:51.022Z,79.02
2022-10-12T14:37:20.562Z,80.45
2022-10-12T14:39:49.407Z,80.13
2022-10-12T14:42:21.009Z,80.46
2022-10-12T14:44:49.677Z,80.42
2022-10-12T14:47:30.144Z,81.66
2022-10-12T14:49:59.481Z,81.32
2022-10-12T14:52:34.477Z,82.74
2022-10-12T14:55:02.220Z,82.90
2022-10-12T14:57:31.174Z,82.20
2022-10-12T14:59:58.949Z,84.31
2022-10-12T15:02:31.569Z,84.12
2022-10-12T15:04:59.619Z,83.10
2022-10-12T15:07:30.791Z,83.12
2022-10-12T15:09:58.877Z,83.25
2022-10-12T15:12:28.056Z,84.68
2022-10-12T15:14:56.315Z,84.11
2022-10-12T15:17:23.833Z,85.00
2022-10-12T15:19:52.268Z,85.48
2022-10-12T15:22:22.413Z,87.35
2022-10-12T15:24:51.075Z,89.39
2022-10-12T15:27:18.979Z,91.49
2022-10-12T15:29:48.197Z,91.68
2022-10-12T15:32:18.111Z,92.04
2022-10-12T15:34:45.953Z,91.29
2022-10-12T15:37:14.257Z,91.24
2022-10-12T15:39:43.354Z,93.67
2022-10-12T15:42:12.601Z,95.37
2022-10-12T15:44:41.505Z,99.60
2022-10-12T15:47:11.442Z,99.88
2022-10-12T15:49:39.628Z,99.76
2022-10-12T15:52:09.016Z,100.00
2022-10-12T15:54:36.819Z,100.00
2022-10-12T15:57:04.278Z,100.00
2022-10-12T15:59:32.408Z,100.00
2022-10-12T16:02:00.021Z,100.00
2022-10-12T16:04:27.784Z,100.00
2022-10-12T16:06:55.260Z,100.00
2022-10-12T16:09:23.101Z,100.00
2022-10-12T16:11:50.524Z,100.00
2022-10-12T16:14:18.283Z,100.00
2022-10-12T16:16:45.694Z,100.00
2022-10-12T16:19:13.378Z,100.00
2022-10-12T16:21:40.788Z,100.00
2022-10-12T16:24:08.333Z,100.00
2022-10-12T16:26:36.048Z,100.00
2022-10-12T16:29:03.574Z,100.00
2022-10-12T16:31:31.162Z,100.00
2022-10-12T16:33:58.778Z,100.00
2022-10-12T16:36:26.362Z,100.00
2022-10-12T16:38:54.720Z,100.00
2022-10-12T16:41:22.825Z,100.00
2022-10-12T16:43:50.354Z,100.00
2022-10-12T16:46:18.289Z,100.00
2022-10-12T16:48:45.834Z,100.00
2022-10-12T16:51:13.791Z,100.00
2022-10-12T16:53:42.583Z,100.00
2022-10-12T16:56:11.083Z,100.00
2022-10-12T16:58:38.644Z,100.00
2022-10-12T17:01:11.259Z,100.00
2022-10-12T17:03:39.136Z,100.00
2022-10-12T17:06:07.450Z,100.00
2022-10-12T17:08:35.794Z,100.00
2022-10-12T17:11:12.006Z,100.00
2022-10-12T17:13:43.071Z,100.00
2022-10-12T17:16:31.653Z,100.00
2022-10-12T17:18:59.894Z,100.00
2022-10-12T17:21:28.373Z,100.00
2022-10-12T17:23:58.313Z,100.00
2022-10-12T17:26:26.661Z,100.00
2022-10-12T17:28:54.647Z,100.00
2022-10-12T17:31:22.547Z,100.00
2022-10-12T17:33:50.178Z,100.00
2022-10-12T17:36:18.244Z,100.00
2022-10-12T17:38:48.493Z,100.00
2022-10-12T17:41:16.375Z,100.00
2022-10-12T17:43:43.703Z,100.00
2022-10-12T17:46:11.387Z,100.00
2022-10-12T17:48:38.930Z,100.00
2022-10-12T17:51:09.762Z,100.00
2022-10-12T17:53:37.309Z,100.00
2022-10-12T17:56:06.946Z,100.00
2022-10-12T17:58:34.723Z,100.00
2022-10-12T18:01:07.366Z,100.00
2022-10-12T18:03:35.066Z,100.00
2022-10-12T18:06:04.640Z,100.00
2022-10-12T18:08:32.803Z,100.00
2022-10-12T18:11:01.035Z,100.00
2022-10-12T18:13:29.171Z,100.00
2022-10-12T18:15:56.769Z,100.00
2022-10-12T18:18:24.650Z,100.00
2022-10-12T18:20:52.151Z,100.00
2022-10-12T18:23:20.469Z,100.00
2022-10-12T18:25:48.023Z,100.00
2022-10-12T18:28:15.758Z,100.00
2022-10-12T18:30:51.196Z,100.00
2022-10-12T18:33:18.548Z,100.00
2022-10-12T18:35:46.259Z,100.00
2022-10-12T18:38:13.836Z,100.00
2022-10-12T18:40:42.501Z,100.00
2022-10-12T18:43:11.369Z,100.00
2022-10-12T18:45:43.624Z,100.00
2022-10-12T18:48:15.300Z,100.00
2022-10-12T18:50:43.279Z,100.00
2022-10-12T18:53:11.413Z,100.00
2022-10-12T18:55:39.516Z,100.00
2022-10-12T18:58:07.334Z,100.00
2022-10-12T19:00:35.335Z,100.00
2022-10-12T19:03:02.973Z,100.00
2022-10-12T19:05:30.862Z,100.00
2022-10-12T19:07:58.734Z,100.00
2022-10-12T19:10:26.321Z,100.00
2022-10-12T19:12:54.190Z,100.00
2022-10-12T19:15:22.097Z,100.00
2022-10-12T19:17:49.701Z,100.00
2022-10-12T19:20:18.052Z,100.00
2022-10-12T19:22:45.635Z,100.00
2022-10-12T19:25:13.363Z,100.00
2022-10-12T19:27:40.828Z,100.00
2022-10-12T19:30:09.423Z,100.00
2022-10-12T19:32:36.931Z,100.00
2022-10-12T19:35:05.085Z,100.00
2022-10-12T19:37:33.135Z,100.00
2022-10-12T19:40:05.189Z,100.00
2022-10-12T19:42:35.108Z,100.00
2022-10-12T19:45:03.529Z,100.00
2022-10-12T19:47:31.278Z,100.00
2022-10-12T19:49:59.102Z,100.00
2022-10-12T19:52:26.499Z,100.00
2022-10-12T19:54:54.457Z,100.00
2022-10-12T19:57:22.161Z,100.00
2022-10-12T19:59:50.169Z,100.00
2022-10-12T20:02:17.692Z,100.00
2022-10-12T20:04:45.362Z,100.00
2022-10-12T20:07:13.488Z,100.00
2022-10-12T20:09:40.934Z,100.00
2022-10-12T20:12:09.247Z,100.00
2022-10-12T20:14:36.775Z,100.00
2022-10-12T20:17:04.065Z,100.00
2022-10-12T20:19:32.119Z,100.00
2022-10-12T20:21:59.461Z,100.00
2022-10-12T20:24:27.059Z,100.00
2022-10-12T20:26:54.581Z,100.00
2022-10-12T20:29:22.219Z,100.00
2022-10-12T20:31:50.242Z,100.00
2022-10-12T20:34:17.940Z,100.00
2022-10-12T20:36:45.658Z,100.00
2022-10-12T20:39:13.461Z,100.00
2022-10-12T20:41:41.531Z,100.00
2022-10-12T20:44:09.779Z,100.00
2022-10-12T20:46:37.251Z,100.00
2022-10-12T20:49:05.156Z,100.00
2022-10-12T20:51:36.049Z,100.00
2022-10-12T20:54:05.837Z,100.00
2022-10-12T20:56:34.233Z,100.00
2022-10-12T20:59:02.270Z,100.00
2022-10-12T21:01:30.043Z,100.00
2022-10-12T21:03:58.498Z,100.00
2022-10-12T21:06:26.247Z,100.00
2022-10-12T21:08:56.327Z,100.00
2022-10-12T21:11:26.729Z,100.00
2022-10-12T21:13:54.876Z,100.00
2022-10-12T21:16:22.438Z,100.00
2022-10-12T21:18:54.410Z,100.00
2022-10-12T21:21:22.398Z,100.00
2022-10-12T21:23:59.957Z,100.00
2022-10-12T21:26:30.875Z,100.00
2022-10-12T21:29:01.239Z,100.00
2022-10-12T21:31:32.658Z,100.00
2022-10-12T21:34:06.267Z,100.00
2022-10-12T21:36:36.678Z,100.00
2022-10-12T21:39:08.393Z,100.00
2022-10-12T21:41:36.057Z,100.00
2022-10-12T21:44:03.925Z,100.00
2022-10-12T21:46:32.710Z,100.00
2022-10-12T21:49:01.694Z,100.00
2022-10-12T21:51:31.711Z,100.00
2022-10-12T21:53:59.285Z,100.00
2022-10-12T21:56:29.462Z,100.00
2022-10-12T21:58:59.991Z,100.00
2022-10-12T22:01:34.940Z,100.00
2022-10-12T22:04:05.200Z,100.00
2022-10-12T22:06:33.113Z,100.00
2022-10-12T22:09:05.474Z,100.00
2022-10-12T22:11:35.173Z,100.00
2022-10-12T22:14:05.305Z,100.00
2022-10-12T22:16:35.318Z,100.00
2022-10-12T22:19:04.413Z,100.00
2022-10-12T22:21:36.533Z,100.00
2022-10-12T22:24:05.131Z,100.00
2022-10-12T22:26:32.635Z,100.00
2022-10-12T22:29:04.560Z,100.00
2022-10-12T22:31:32.376Z,100.00
2022-10-12T22:33:59.670Z,100.00
2022-10-12T22:36:31.678Z,100.00
2022-10-12T22:39:03.805Z,100.00
2022-10-12T22:41:31.528Z,100.00
2022-10-12T22:43:58.859Z,100.00
2022-10-12T22:46:26.785Z,100.00
2022-10-12T22:48:55.167Z,100.00
2022-10-12T22:51:30.573Z,100.00
2022-10-12T22:53:59.064Z,100.00
2022-10-12T22:56:26.617Z,100.00
2022-10-12T22:58:55.479Z,100.00
2022-10-12T23:01:23.343Z,100.00
2022-10-12T23:03:50.995Z,100.00
2022-10-12T23:06:19.076Z,100.00
2022-10-12T23:08:47.490Z,100.00
2022-10-12T23:11:17.895Z,100.00
2022-10-12T23:13:45.765Z,100.00
2022-10-12T23:16:15.639Z,100.00
2022-10-12T23:18:43.383Z,100.00
2022-10-12T23:21:13.433Z,100.00
2022-10-12T23:23:41.691Z,100.00
2022-10-12T23:26:12.424Z,100.00
2022-10-12T23:28:40.253Z,100.00
2022-10-12T23:31:18.850Z,100.00
2022-10-12T23:33:46.525Z,100.00
2022-10-12T23:36:16.631Z,100.00
2022-10-12T23:38:45.263Z,100.00
2022-10-12T23:41:13.449Z,100.00
2022-10-12T23:43:41.604Z,100.00
2022-10-12T23:46:11.115Z,100.00
2022-10-12T23:48:38.515Z,100.00
2022-10-12T23:51:08.030Z,100.00
2022-10-12T23:53:36.708Z,100.00
2022-10-12T23:56:06.184Z,100.00
2022-10-12T23:58:35.076Z,100.00
